createdAt,value
2019-03-04T00:00:12.437Z,1.12
2019-03-04T00:15:12.482Z,1.17
2019-03-04T00:30:12.541Z,1.18
2019-03-04T00:45:12.595Z,1.01
2019-03-04T01:00:12.605Z,1.04
2019-03-04T01:15:12.671Z,1.12
2019-03-04T01:30:12.691Z,1.18
2019-03-04T01:45:12.956Z,1.12
2019-03-04T02:00:02.779Z,1.25
2019-03-04T02:15:03.300Z,1.16
2019-03-04T02:45:02.885Z,1.07
2019-03-04T03:00:03.187Z,1.1
2019-03-04T04:00:03.424Z,1.18
2019-03-04T04:30:04.549Z,1.04
2019-03-04T04:45:04.588Z,1.14
2019-03-04T05:00:04.650Z,1.22
2019-03-04T05:30:05.212Z,1.14
2019-03-04T05:45:05.258Z,1.06
2019-03-04T06:45:12.186Z,1.11
2019-03-04T07:00:04.070Z,1.24
2019-03-04T07:15:09.171Z,1.19
2019-03-04T07:30:11.347Z,1.09
2019-03-04T08:15:05.864Z,1.29
2019-03-04T08:30:03.760Z,1.47
2019-03-04T08:45:06.466Z,1.87
2019-03-04T09:30:11.861Z,1.33
2019-03-04T09:45:12.142Z,1.39
2019-03-04T10:00:08.048Z,1.38
2019-03-04T11:00:08.467Z,1.43
2019-03-04T11:15:08.747Z,1.35
2019-03-04T11:30:11.900Z,1.33
2019-03-04T12:00:12.365Z,1.27
2019-03-04T12:15:12.779Z,1.39
2019-03-04T12:30:02.674Z,1.21
2019-03-04T12:45:12.715Z,1.24
2019-03-04T13:00:12.748Z,1.18
2019-03-04T13:15:12.793Z,1.65
2019-03-04T13:45:02.886Z,1.14
2019-03-04T14:00:02.925Z,1.19
2019-03-04T14:30:02.979Z,1.27
2019-03-04T15:00:04.578Z,1.38
2019-03-04T15:15:03.144Z,1.48
2019-03-04T16:00:03.260Z,1.71
2019-03-04T16:15:03.307Z,1.75
2019-03-04T16:30:03.401Z,1.77
2019-03-04T16:45:03.386Z,1.6
2019-03-04T17:00:03.368Z,1.55
2019-03-04T17:15:03.448Z,1.52
2019-03-04T17:30:03.489Z,1.5
2019-03-04T17:45:04.501Z,1.26
2019-03-04T18:00:06.111Z,1.11
2019-03-04T18:15:08.424Z,1.37
2019-03-04T18:30:08.466Z,1.39
2019-03-04T18:45:09.931Z,1.22
2019-03-04T19:15:11.225Z,1.09
2019-03-04T19:30:11.179Z,1.14
2019-03-04T19:45:11.278Z,1.03
2019-03-04T20:15:06.041Z,0.97
2019-03-04T20:30:06.240Z,1.07
2019-03-04T20:45:06.821Z,1.12
2019-03-04T21:00:08.410Z,0.98
2019-03-04T21:15:08.941Z,1.11
2019-03-04T21:30:09.431Z,1.13
2019-03-04T22:00:12.359Z,0.98
2019-03-04T22:15:05.378Z,0.99
2019-03-04T23:30:07.158Z,1.19
2019-03-04T23:45:07.572Z,1.03
